sensor_id;sensor_type;location;lat;lon;timestamp;temperature;humidity
10344;DHT22;5217;43.960;10.954;2023-02-15T00:00:16;14.30;79.10
10344;DHT22;5217;43.960;10.954;2023-02-15T00:02:45;14.30;79.10
10344;DHT22;5217;43.960;10.954;2023-02-15T00:05:15;14.30;79.10
10344;DHT22;5217;43.960;10.954;2023-02-15T00:07:44;14.30;79.10
10344;DHT22;5217;43.960;10.954;2023-02-15T00:10:14;14.30;79.10
10344;DHT22;5217;43.960;10.954;2023-02-15T00:12:44;14.30;79.10
10344;DHT22;5217;43.960;10.954;2023-02-15T00:15:12;14.30;79.10
10344;DHT22;5217;43.960;10.954;2023-02-15T00:17:41;14.20;79.00
10344;DHT22;5217;43.960;10.954;2023-02-15T00:20:10;14.20;79.00
10344;DHT22;5217;43.960;10.954;2023-02-15T00:22:40;14.20;79.00
10344;DHT22;5217;43.960;10.954;2023-02-15T00:25:08;14.20;79.00
10344;DHT22;5217;43.960;10.954;2023-02-15T00:27:37;14.20;79.00
10344;DHT22;5217;43.960;10.954;2023-02-15T00:30:07;14.10;78.90
10344;DHT22;5217;43.960;10.954;2023-02-15T00:32:35;14.10;78.90
10344;DHT22;5217;43.960;10.954;2023-02-15T00:35:04;14.10;78.90
10344;DHT22;5217;43.960;10.954;2023-02-15T00:37:33;14.10;79.00
10344;DHT22;5217;43.960;10.954;2023-02-15T00:40:04;14.00;79.10
10344;DHT22;5217;43.960;10.954;2023-02-15T00:42:33;14.00;79.30
10344;DHT22;5217;43.960;10.954;2023-02-15T00:45:01;14.00;79.20
10344;DHT22;5217;43.960;10.954;2023-02-15T00:47:30;14.00;79.30
10344;DHT22;5217;43.960;10.954;2023-02-15T00:49:58;14.00;79.20
10344;DHT22;5217;43.960;10.954;2023-02-15T00:52:26;13.90;79.10
10344;DHT22;5217;43.960;10.954;2023-02-15T00:54:55;13.90;79.20
10344;DHT22;5217;43.960;10.954;2023-02-15T00:57:24;13.90;79.40
10344;DHT22;5217;43.960;10.954;2023-02-15T00:59:53;13.90;79.50
10344;DHT22;5217;43.960;10.954;2023-02-15T01:02:21;13.90;79.60
10344;DHT22;5217;43.960;10.954;2023-02-15T01:04:49;13.80;79.60
10344;DHT22;5217;43.960;10.954;2023-02-15T01:07:18;13.80;79.60
10344;DHT22;5217;43.960;10.954;2023-02-15T01:09:46;13.80;79.60
10344;DHT22;5217;43.960;10.954;2023-02-15T01:12:14;13.80;79.60
10344;DHT22;5217;43.960;10.954;2023-02-15T01:14:44;13.70;79.60
10344;DHT22;5217;43.960;10.954;2023-02-15T01:17:12;13.80;79.80
10344;DHT22;5217;43.960;10.954;2023-02-15T01:19:41;13.80;80.00
10344;DHT22;5217;43.960;10.954;2023-02-15T01:22:09;13.70;80.00
10344;DHT22;5217;43.960;10.954;2023-02-15T01:24:37;13.70;80.00
10344;DHT22;5217;43.960;10.954;2023-02-15T01:27:06;13.70;80.00
10344;DHT22;5217;43.960;10.954;2023-02-15T01:29:34;13.70;80.20
10344;DHT22;5217;43.960;10.954;2023-02-15T01:32:04;13.60;80.20
10344;DHT22;5217;43.960;10.954;2023-02-15T01:34:33;13.60;80.20
10344;DHT22;5217;43.960;10.954;2023-02-15T01:37:01;13.60;80.10
10344;DHT22;5217;43.960;10.954;2023-02-15T01:39:30;13.60;80.00
10344;DHT22;5217;43.960;10.954;2023-02-15T01:41:58;13.60;80.10
10344;DHT22;5217;43.960;10.954;2023-02-15T01:44:49;13.60;80.10
10344;DHT22;5217;43.960;10.954;2023-02-15T01:47:23;13.50;80.20
10344;DHT22;5217;43.960;10.954;2023-02-15T01:50:02;13.50;80.10
10344;DHT22;5217;43.960;10.954;2023-02-15T01:52:33;13.50;80.10
10344;DHT22;5217;43.960;10.954;2023-02-15T01:55:03;13.50;80.00
10344;DHT22;5217;43.960;10.954;2023-02-15T01:57:33;13.50;80.00
10344;DHT22;5217;43.960;10.954;2023-02-15T02:00:05;13.50;79.90
10344;DHT22;5217;43.960;10.954;2023-02-15T02:02:36;13.40;80.20
10344;DHT22;5217;43.960;10.954;2023-02-15T02:05:07;13.40;79.30
10344;DHT22;5217;43.960;10.954;2023-02-15T02:07:38;13.40;79.20
10344;DHT22;5217;43.960;10.954;2023-02-15T02:10:08;13.30;79.20
10344;DHT22;5217;43.960;10.954;2023-02-15T02:12:39;13.30;79.30
10344;DHT22;5217;43.960;10.954;2023-02-15T02:15:09;13.30;79.40
10344;DHT22;5217;43.960;10.954;2023-02-15T02:17:45;13.30;79.50
10344;DHT22;5217;43.960;10.954;2023-02-15T02:20:31;13.30;79.60
10344;DHT22;5217;43.960;10.954;2023-02-15T02:23:28;13.20;79.50
10344;DHT22;5217;43.960;10.954;2023-02-15T02:26:26;13.20;79.60
10344;DHT22;5217;43.960;10.954;2023-02-15T02:35:29;13.20;79.60
10344;DHT22;5217;43.960;10.954;2023-02-15T02:38:03;13.10;79.70
10344;DHT22;5217;43.960;10.954;2023-02-15T02:40:42;13.20;80.00
10344;DHT22;5217;43.960;10.954;2023-02-15T02:43:16;13.10;80.10
10344;DHT22;5217;43.960;10.954;2023-02-15T02:45:51;13.10;80.10
10344;DHT22;5217;43.960;10.954;2023-02-15T02:48:22;13.10;80.20
10344;DHT22;5217;43.960;10.954;2023-02-15T02:50:53;13.10;80.30
10344;DHT22;5217;43.960;10.954;2023-02-15T02:53:22;13.10;80.20
10344;DHT22;5217;43.960;10.954;2023-02-15T02:55:53;13.10;80.10
10344;DHT22;5217;43.960;10.954;2023-02-15T02:58:26;13.00;79.90
10344;DHT22;5217;43.960;10.954;2023-02-15T03:01:02;13.00;79.70
10344;DHT22;5217;43.960;10.954;2023-02-15T03:03:36;13.00;79.70
10344;DHT22;5217;43.960;10.954;2023-02-15T03:06:10;13.00;79.70
10344;DHT22;5217;43.960;10.954;2023-02-15T03:08:42;12.90;79.80
10344;DHT22;5217;43.960;10.954;2023-02-15T03:11:12;12.90;80.10
10344;DHT22;5217;43.960;10.954;2023-02-15T03:13:40;12.90;80.10
10344;DHT22;5217;43.960;10.954;2023-02-15T03:16:10;12.90;80.10
10344;DHT22;5217;43.960;10.954;2023-02-15T03:18:58;12.80;79.70
10344;DHT22;5217;43.960;10.954;2023-02-15T03:21:35;12.80;79.50
10344;DHT22;5217;43.960;10.954;2023-02-15T03:24:09;12.80;79.70
10344;DHT22;5217;43.960;10.954;2023-02-15T03:26:39;12.80;79.70
10344;DHT22;5217;43.960;10.954;2023-02-15T03:29:10;12.70;79.60
10344;DHT22;5217;43.960;10.954;2023-02-15T03:31:41;12.70;79.50
10344;DHT22;5217;43.960;10.954;2023-02-15T03:34:13;12.70;79.50
10344;DHT22;5217;43.960;10.954;2023-02-15T03:36:50;12.60;79.50
10344;DHT22;5217;43.960;10.954;2023-02-15T03:39:23;12.60;79.30
10344;DHT22;5217;43.960;10.954;2023-02-15T03:41:58;12.50;79.20
10344;DHT22;5217;43.960;10.954;2023-02-15T03:44:29;12.60;79.50
10344;DHT22;5217;43.960;10.954;2023-02-15T03:47:02;12.60;79.80
10344;DHT22;5217;43.960;10.954;2023-02-15T03:49:38;12.50;79.70
10344;DHT22;5217;43.960;10.954;2023-02-15T03:52:11;12.50;79.70
10344;DHT22;5217;43.960;10.954;2023-02-15T03:54:43;12.50;79.50
10344;DHT22;5217;43.960;10.954;2023-02-15T03:57:18;12.50;79.50
10344;DHT22;5217;43.960;10.954;2023-02-15T04:00:11;12.50;79.60
10344;DHT22;5217;43.960;10.954;2023-02-15T04:03:09;12.40;79.50
10344;DHT22;5217;43.960;10.954;2023-02-15T04:05:38;12.40;79.30
10344;DHT22;5217;43.960;10.954;2023-02-15T04:08:08;12.40;79.10
10344;DHT22;5217;43.960;10.954;2023-02-15T04:10:37;12.40;79.10
10344;DHT22;5217;43.960;10.954;2023-02-15T04:13:20;12.30;79.00
10344;DHT22;5217;43.960;10.954;2023-02-15T04:15:48;12.30;79.10
10344;DHT22;5217;43.960;10.954;2023-02-15T04:18:33;12.20;79.30
10344;DHT22;5217;43.960;10.954;2023-02-15T04:21:19;12.20;79.30
10344;DHT22;5217;43.960;10.954;2023-02-15T04:24:07;12.20;79.60
10344;DHT22;5217;43.960;10.954;2023-02-15T04:26:53;12.20;79.70
10344;DHT22;5217;43.960;10.954;2023-02-15T04:29:22;12.20;79.90
10344;DHT22;5217;43.960;10.954;2023-02-15T04:31:52;12.20;80.00
10344;DHT22;5217;43.960;10.954;2023-02-15T04:34:21;12.10;79.90
10344;DHT22;5217;43.960;10.954;2023-02-15T04:36:49;12.10;80.20
10344;DHT22;5217;43.960;10.954;2023-02-15T04:39:19;12.10;80.20
10344;DHT22;5217;43.960;10.954;2023-02-15T04:41:47;12.10;80.20
10344;DHT22;5217;43.960;10.954;2023-02-15T04:44:16;12.00;80.00
10344;DHT22;5217;43.960;10.954;2023-02-15T04:46:44;12.00;80.20
10344;DHT22;5217;43.960;10.954;2023-02-15T04:49:12;12.00;80.20
10344;DHT22;5217;43.960;10.954;2023-02-15T04:51:41;12.00;79.80
10344;DHT22;5217;43.960;10.954;2023-02-15T04:54:09;12.00;79.30
10344;DHT22;5217;43.960;10.954;2023-02-15T04:56:39;11.90;78.90
10344;DHT22;5217;43.960;10.954;2023-02-15T04:59:10;11.90;78.90
10344;DHT22;5217;43.960;10.954;2023-02-15T05:01:38;11.90;79.00
10344;DHT22;5217;43.960;10.954;2023-02-15T05:04:07;11.90;79.20
10344;DHT22;5217;43.960;10.954;2023-02-15T05:06:36;11.80;79.40
10344;DHT22;5217;43.960;10.954;2023-02-15T05:09:04;11.80;79.50
10344;DHT22;5217;43.960;10.954;2023-02-15T05:11:32;11.80;79.50
10344;DHT22;5217;43.960;10.954;2023-02-15T05:14:02;11.80;79.60
10344;DHT22;5217;43.960;10.954;2023-02-15T05:16:31;11.80;79.50
10344;DHT22;5217;43.960;10.954;2023-02-15T05:18:59;11.80;79.50
10344;DHT22;5217;43.960;10.954;2023-02-15T05:21:28;11.80;79.50
10344;DHT22;5217;43.960;10.954;2023-02-15T05:23:56;11.80;80.30
10344;DHT22;5217;43.960;10.954;2023-02-15T05:26:25;11.70;79.30
10344;DHT22;5217;43.960;10.954;2023-02-15T05:29:12;11.70;79.40
10344;DHT22;5217;43.960;10.954;2023-02-15T05:31:40;11.70;79.70
10344;DHT22;5217;43.960;10.954;2023-02-15T05:34:11;11.70;80.00
10344;DHT22;5217;43.960;10.954;2023-02-15T05:36:39;11.80;80.20
10344;DHT22;5217;43.960;10.954;2023-02-15T05:39:07;11.70;80.20
10344;DHT22;5217;43.960;10.954;2023-02-15T05:41:36;11.70;80.30
10344;DHT22;5217;43.960;10.954;2023-02-15T05:44:04;11.70;80.30
10344;DHT22;5217;43.960;10.954;2023-02-15T05:46:34;11.70;80.40
10344;DHT22;5217;43.960;10.954;2023-02-15T05:49:02;11.70;80.10
10344;DHT22;5217;43.960;10.954;2023-02-15T05:51:31;11.70;79.70
10344;DHT22;5217;43.960;10.954;2023-02-15T05:53:59;11.60;79.20
10344;DHT22;5217;43.960;10.954;2023-02-15T05:56:27;11.60;79.10
10344;DHT22;5217;43.960;10.954;2023-02-15T05:58:56;11.60;79.10
10344;DHT22;5217;43.960;10.954;2023-02-15T06:01:24;11.60;79.30
10344;DHT22;5217;43.960;10.954;2023-02-15T06:03:54;11.60;79.50
10344;DHT22;5217;43.960;10.954;2023-02-15T06:06:22;11.50;79.70
10344;DHT22;5217;43.960;10.954;2023-02-15T06:08:50;11.60;80.00
10344;DHT22;5217;43.960;10.954;2023-02-15T06:11:19;11.50;79.90
10344;DHT22;5217;43.960;10.954;2023-02-15T06:13:47;11.60;80.00
10344;DHT22;5217;43.960;10.954;2023-02-15T06:16:15;11.60;79.90
10344;DHT22;5217;43.960;10.954;2023-02-15T06:18:44;11.50;79.50
10344;DHT22;5217;43.960;10.954;2023-02-15T06:21:14;11.50;79.20
10344;DHT22;5217;43.960;10.954;2023-02-15T06:23:42;11.50;79.10
10344;DHT22;5217;43.960;10.954;2023-02-15T06:26:11;11.50;79.10
10344;DHT22;5217;43.960;10.954;2023-02-15T06:28:39;11.50;78.70
10344;DHT22;5217;43.960;10.954;2023-02-15T06:31:07;11.50;78.70
10344;DHT22;5217;43.960;10.954;2023-02-15T06:33:36;11.40;78.60
10344;DHT22;5217;43.960;10.954;2023-02-15T06:36:05;11.40;78.80
10344;DHT22;5217;43.960;10.954;2023-02-15T06:38:35;11.40;79.10
10344;DHT22;5217;43.960;10.954;2023-02-15T06:41:03;11.40;79.00
10344;DHT22;5217;43.960;10.954;2023-02-15T06:43:32;11.40;79.00
10344;DHT22;5217;43.960;10.954;2023-02-15T06:46:01;11.40;79.20
10344;DHT22;5217;43.960;10.954;2023-02-15T06:48:29;11.40;79.30
10344;DHT22;5217;43.960;10.954;2023-02-15T06:50:58;11.40;79.20
10344;DHT22;5217;43.960;10.954;2023-02-15T06:53:26;11.40;79.10
10344;DHT22;5217;43.960;10.954;2023-02-15T06:56:01;11.40;79.10
10344;DHT22;5217;43.960;10.954;2023-02-15T06:58:33;11.40;79.10
10344;DHT22;5217;43.960;10.954;2023-02-15T07:01:01;11.50;79.10
10344;DHT22;5217;43.960;10.954;2023-02-15T07:03:30;11.40;79.20
10344;DHT22;5217;43.960;10.954;2023-02-15T07:06:01;11.40;79.60
10344;DHT22;5217;43.960;10.954;2023-02-15T07:08:30;11.50;80.00
10344;DHT22;5217;43.960;10.954;2023-02-15T07:10:58;11.50;80.20
10344;DHT22;5217;43.960;10.954;2023-02-15T07:13:49;11.50;80.40
10344;DHT22;5217;43.960;10.954;2023-02-15T07:16:16;11.50;80.50
10344;DHT22;5217;43.960;10.954;2023-02-15T07:18:44;11.50;80.50
10344;DHT22;5217;43.960;10.954;2023-02-15T07:21:13;11.50;80.50
10344;DHT22;5217;43.960;10.954;2023-02-15T07:23:41;11.50;80.40
10344;DHT22;5217;43.960;10.954;2023-02-15T07:26:09;11.50;80.50
10344;DHT22;5217;43.960;10.954;2023-02-15T07:28:38;11.50;80.60
10344;DHT22;5217;43.960;10.954;2023-02-15T07:31:08;11.50;80.70
10344;DHT22;5217;43.960;10.954;2023-02-15T07:33:36;11.50;80.70
10344;DHT22;5217;43.960;10.954;2023-02-15T07:36:05;11.50;80.70
10344;DHT22;5217;43.960;10.954;2023-02-15T07:38:35;11.50;80.80
10344;DHT22;5217;43.960;10.954;2023-02-15T07:41:06;11.60;81.10
10344;DHT22;5217;43.960;10.954;2023-02-15T07:43:37;11.50;81.10
10344;DHT22;5217;43.960;10.954;2023-02-15T07:46:09;11.60;81.20
10344;DHT22;5217;43.960;10.954;2023-02-15T07:48:39;11.60;81.30
10344;DHT22;5217;43.960;10.954;2023-02-15T07:51:10;11.50;81.40
10344;DHT22;5217;43.960;10.954;2023-02-15T07:53:39;11.60;81.70
10344;DHT22;5217;43.960;10.954;2023-02-15T07:56:09;11.60;82.30
10344;DHT22;5217;43.960;10.954;2023-02-15T07:58:38;11.70;83.40
10344;DHT22;5217;43.960;10.954;2023-02-15T08:01:22;11.70;84.10
10344;DHT22;5217;43.960;10.954;2023-02-15T08:03:51;11.70;84.60
10344;DHT22;5217;43.960;10.954;2023-02-15T08:06:20;11.80;84.90
10344;DHT22;5217;43.960;10.954;2023-02-15T08:08:49;11.80;85.20
10344;DHT22;5217;43.960;10.954;2023-02-15T08:11:19;11.80;85.50
10344;DHT22;5217;43.960;10.954;2023-02-15T08:13:57;11.80;85.80
10344;DHT22;5217;43.960;10.954;2023-02-15T08:16:30;11.80;86.10
10344;DHT22;5217;43.960;10.954;2023-02-15T08:19:00;11.80;86.40
10344;DHT22;5217;43.960;10.954;2023-02-15T08:21:30;11.90;86.70
10344;DHT22;5217;43.960;10.954;2023-02-15T08:23:59;11.90;87.00
10344;DHT22;5217;43.960;10.954;2023-02-15T08:26:29;11.90;87.20
10344;DHT22;5217;43.960;10.954;2023-02-15T08:28:58;12.00;87.40
10344;DHT22;5217;43.960;10.954;2023-02-15T08:31:28;12.00;87.60
10344;DHT22;5217;43.960;10.954;2023-02-15T08:33:57;12.00;87.70
10344;DHT22;5217;43.960;10.954;2023-02-15T08:36:27;12.00;87.70
10344;DHT22;5217;43.960;10.954;2023-02-15T08:38:58;12.10;87.80
10344;DHT22;5217;43.960;10.954;2023-02-15T08:41:29;12.10;87.90
10344;DHT22;5217;43.960;10.954;2023-02-15T08:44:00;12.10;88.10
10344;DHT22;5217;43.960;10.954;2023-02-15T08:46:31;12.20;88.40
10344;DHT22;5217;43.960;10.954;2023-02-15T08:49:00;12.20;88.60
10344;DHT22;5217;43.960;10.954;2023-02-15T08:51:30;12.20;88.40
10344;DHT22;5217;43.960;10.954;2023-02-15T08:54:01;12.30;88.20
10344;DHT22;5217;43.960;10.954;2023-02-15T08:56:32;12.30;87.80
10344;DHT22;5217;43.960;10.954;2023-02-15T08:59:01;12.30;87.60
10344;DHT22;5217;43.960;10.954;2023-02-15T09:01:33;12.20;87.40
10344;DHT22;5217;43.960;10.954;2023-02-15T09:04:04;12.20;87.30
10344;DHT22;5217;43.960;10.954;2023-02-15T09:06:35;12.20;87.20
10344;DHT22;5217;43.960;10.954;2023-02-15T09:09:04;12.30;87.40
10344;DHT22;5217;43.960;10.954;2023-02-15T09:11:35;12.30;87.60
10344;DHT22;5217;43.960;10.954;2023-02-15T09:14:05;12.30;87.80
10344;DHT22;5217;43.960;10.954;2023-02-15T09:16:37;12.30;88.00
10344;DHT22;5217;43.960;10.954;2023-02-15T09:19:06;12.30;88.40
10344;DHT22;5217;43.960;10.954;2023-02-15T09:21:36;12.30;88.90
10344;DHT22;5217;43.960;10.954;2023-02-15T09:24:06;12.30;88.70
10344;DHT22;5217;43.960;10.954;2023-02-15T09:26:37;12.30;88.90
10344;DHT22;5217;43.960;10.954;2023-02-15T09:29:06;12.30;89.10
10344;DHT22;5217;43.960;10.954;2023-02-15T09:31:38;12.30;89.10
10344;DHT22;5217;43.960;10.954;2023-02-15T09:34:08;12.30;88.80
10344;DHT22;5217;43.960;10.954;2023-02-15T09:36:38;12.30;88.70
10344;DHT22;5217;43.960;10.954;2023-02-15T09:39:09;12.40;89.00
10344;DHT22;5217;43.960;10.954;2023-02-15T09:41:58;12.40;89.00
10344;DHT22;5217;43.960;10.954;2023-02-15T09:44:44;12.40;89.00
10344;DHT22;5217;43.960;10.954;2023-02-15T09:47:37;12.40;89.10
10344;DHT22;5217;43.960;10.954;2023-02-15T09:50:14;12.40;89.10
10344;DHT22;5217;43.960;10.954;2023-02-15T09:52:51;12.50;89.30
10344;DHT22;5217;43.960;10.954;2023-02-15T09:55:38;12.50;89.30
10344;DHT22;5217;43.960;10.954;2023-02-15T09:58:13;12.60;89.80
10344;DHT22;5217;43.960;10.954;2023-02-15T10:00:51;12.60;90.00
10344;DHT22;5217;43.960;10.954;2023-02-15T10:03:38;12.60;89.50
10344;DHT22;5217;43.960;10.954;2023-02-15T10:06:23;12.60;89.60
10344;DHT22;5217;43.960;10.954;2023-02-15T10:09:10;12.70;90.00
10344;DHT22;5217;43.960;10.954;2023-02-15T10:11:57;12.70;89.90
10344;DHT22;5217;43.960;10.954;2023-02-15T10:15:02;12.70;89.90
10344;DHT22;5217;43.960;10.954;2023-02-15T10:17:47;12.80;89.90
10344;DHT22;5217;43.960;10.954;2023-02-15T10:20:25;12.80;90.00
10344;DHT22;5217;43.960;10.954;2023-02-15T10:23:09;12.80;89.90
10344;DHT22;5217;43.960;10.954;2023-02-15T10:25:45;12.80;89.70
10344;DHT22;5217;43.960;10.954;2023-02-15T10:28:18;12.80;89.60
10344;DHT22;5217;43.960;10.954;2023-02-15T10:30:48;12.80;89.60
10344;DHT22;5217;43.960;10.954;2023-02-15T10:33:37;12.90;90.10
10344;DHT22;5217;43.960;10.954;2023-02-15T10:36:27;12.90;90.10
10344;DHT22;5217;43.960;10.954;2023-02-15T10:39:04;12.90;90.20
10344;DHT22;5217;43.960;10.954;2023-02-15T10:41:41;13.00;90.20
10344;DHT22;5217;43.960;10.954;2023-02-15T10:44:35;13.00;90.30
10344;DHT22;5217;43.960;10.954;2023-02-15T10:47:32;13.00;90.40
10344;DHT22;5217;43.960;10.954;2023-02-15T10:56:06;13.30;90.70
10344;DHT22;5217;43.960;10.954;2023-02-15T10:58:51;13.40;90.90
10344;DHT22;5217;43.960;10.954;2023-02-15T11:01:27;13.50;90.70
10344;DHT22;5217;43.960;10.954;2023-02-15T11:04:16;13.60;90.90
10344;DHT22;5217;43.960;10.954;2023-02-15T11:06:51;13.70;91.00
10344;DHT22;5217;43.960;10.954;2023-02-15T11:09:25;13.70;90.70
10344;DHT22;5217;43.960;10.954;2023-02-15T11:11:56;13.80;90.80
10344;DHT22;5217;43.960;10.954;2023-02-15T11:14:33;13.80;91.00
10344;DHT22;5217;43.960;10.954;2023-02-15T11:17:08;13.90;91.10
10344;DHT22;5217;43.960;10.954;2023-02-15T11:19:41;14.00;91.10
10344;DHT22;5217;43.960;10.954;2023-02-15T11:22:14;14.10;91.10
10344;DHT22;5217;43.960;10.954;2023-02-15T11:24:46;14.20;90.90
10344;DHT22;5217;43.960;10.954;2023-02-15T11:27:20;14.20;90.80
10344;DHT22;5217;43.960;10.954;2023-02-15T11:29:57;14.30;90.70
10344;DHT22;5217;43.960;10.954;2023-02-15T11:32:30;14.30;90.50
10344;DHT22;5217;43.960;10.954;2023-02-15T11:35:03;14.40;90.60
10344;DHT22;5217;43.960;10.954;2023-02-15T11:37:37;14.50;90.60
10344;DHT22;5217;43.960;10.954;2023-02-15T11:40:19;14.60;90.40
10344;DHT22;5217;43.960;10.954;2023-02-15T11:42:51;14.60;90.40
10344;DHT22;5217;43.960;10.954;2023-02-15T11:45:27;14.60;90.30
10344;DHT22;5217;43.960;10.954;2023-02-15T11:47:56;14.70;90.30
10344;DHT22;5217;43.960;10.954;2023-02-15T11:50:27;14.80;90.20
10344;DHT22;5217;43.960;10.954;2023-02-15T11:52:58;14.90;90.10
10344;DHT22;5217;43.960;10.954;2023-02-15T11:55:30;15.00;90.00
10344;DHT22;5217;43.960;10.954;2023-02-15T11:58:05;15.10;90.00
10344;DHT22;5217;43.960;10.954;2023-02-15T12:00:39;15.20;90.10
10344;DHT22;5217;43.960;10.954;2023-02-15T12:03:14;15.30;90.10
10344;DHT22;5217;43.960;10.954;2023-02-15T12:05:45;15.30;89.90
10344;DHT22;5217;43.960;10.954;2023-02-15T12:08:17;15.50;89.60
10344;DHT22;5217;43.960;10.954;2023-02-15T12:10:57;15.50;89.20
10344;DHT22;5217;43.960;10.954;2023-02-15T12:13:27;15.60;89.30
10344;DHT22;5217;43.960;10.954;2023-02-15T12:15:58;15.70;88.70
10344;DHT22;5217;43.960;10.954;2023-02-15T12:18:38;15.70;88.40
10344;DHT22;5217;43.960;10.954;2023-02-15T12:21:10;15.80;88.40
10344;DHT22;5217;43.960;10.954;2023-02-15T12:23:43;15.80;88.50
10344;DHT22;5217;43.960;10.954;2023-02-15T12:26:24;15.90;88.60
10344;DHT22;5217;43.960;10.954;2023-02-15T12:28:52;16.00;88.80
10344;DHT22;5217;43.960;10.954;2023-02-15T12:31:27;16.10;88.50
10344;DHT22;5217;43.960;10.954;2023-02-15T12:33:57;16.20;88.40
10344;DHT22;5217;43.960;10.954;2023-02-15T12:36:30;16.20;87.90
10344;DHT22;5217;43.960;10.954;2023-02-15T12:39:19;16.30;87.80
10344;DHT22;5217;43.960;10.954;2023-02-15T12:42:03;16.40;88.20
10344;DHT22;5217;43.960;10.954;2023-02-15T12:44:33;16.40;87.40
10344;DHT22;5217;43.960;10.954;2023-02-15T12:47:04;16.50;87.30
10344;DHT22;5217;43.960;10.954;2023-02-15T12:49:33;16.50;86.40
10344;DHT22;5217;43.960;10.954;2023-02-15T12:52:04;16.50;86.30
10344;DHT22;5217;43.960;10.954;2023-02-15T12:54:36;16.60;86.20
10344;DHT22;5217;43.960;10.954;2023-02-15T12:57:23;16.60;85.90
10344;DHT22;5217;43.960;10.954;2023-02-15T12:59:55;16.70;85.70
10344;DHT22;5217;43.960;10.954;2023-02-15T13:02:27;16.70;85.70
10344;DHT22;5217;43.960;10.954;2023-02-15T13:04:57;16.80;85.80
10344;DHT22;5217;43.960;10.954;2023-02-15T13:07:32;16.80;85.80
10344;DHT22;5217;43.960;10.954;2023-02-15T13:10:01;17.00;86.10
10344;DHT22;5217;43.960;10.954;2023-02-15T13:12:32;17.00;85.60
10344;DHT22;5217;43.960;10.954;2023-02-15T13:15:00;17.10;85.80
10344;DHT22;5217;43.960;10.954;2023-02-15T13:17:32;17.10;85.50
10344;DHT22;5217;43.960;10.954;2023-02-15T13:20:04;17.20;85.60
10344;DHT22;5217;43.960;10.954;2023-02-15T13:22:39;17.20;85.30
10344;DHT22;5217;43.960;10.954;2023-02-15T13:25:13;17.30;85.00
10344;DHT22;5217;43.960;10.954;2023-02-15T13:27:46;17.30;84.80
10344;DHT22;5217;43.960;10.954;2023-02-15T13:30:25;17.30;85.10
10344;DHT22;5217;43.960;10.954;2023-02-15T13:32:56;17.40;84.80
10344;DHT22;5217;43.960;10.954;2023-02-15T13:35:28;17.40;85.70
10344;DHT22;5217;43.960;10.954;2023-02-15T13:38:10;17.40;84.90
10344;DHT22;5217;43.960;10.954;2023-02-15T13:40:45;17.50;85.10
10344;DHT22;5217;43.960;10.954;2023-02-15T13:43:27;17.50;84.80
10344;DHT22;5217;43.960;10.954;2023-02-15T13:46:10;17.60;84.80
10344;DHT22;5217;43.960;10.954;2023-02-15T13:48:48;17.60;84.90
10344;DHT22;5217;43.960;10.954;2023-02-15T13:51:23;17.60;84.80
10344;DHT22;5217;43.960;10.954;2023-02-15T13:54:06;17.60;84.40
10344;DHT22;5217;43.960;10.954;2023-02-15T13:56:46;17.70;84.40
10344;DHT22;5217;43.960;10.954;2023-02-15T13:59:45;17.70;83.80
10344;DHT22;5217;43.960;10.954;2023-02-15T14:02:36;17.70;83.40
10344;DHT22;5217;43.960;10.954;2023-02-15T14:05:21;17.70;83.40
10344;DHT22;5217;43.960;10.954;2023-02-15T14:07:59;17.70;82.70
10344;DHT22;5217;43.960;10.954;2023-02-15T14:10:39;17.70;82.80
10344;DHT22;5217;43.960;10.954;2023-02-15T14:13:45;17.80;83.00
10344;DHT22;5217;43.960;10.954;2023-02-15T14:16:24;17.90;82.90
10344;DHT22;5217;43.960;10.954;2023-02-15T14:19:05;17.90;82.90
10344;DHT22;5217;43.960;10.954;2023-02-15T14:21:41;17.90;82.90
10344;DHT22;5217;43.960;10.954;2023-02-15T14:24:22;18.00;83.00
10344;DHT22;5217;43.960;10.954;2023-02-15T14:26:59;18.00;82.40
10344;DHT22;5217;43.960;10.954;2023-02-15T14:29:45;18.00;82.90
10344;DHT22;5217;43.960;10.954;2023-02-15T14:32:20;18.00;83.00
10344;DHT22;5217;43.960;10.954;2023-02-15T14:34:52;18.10;82.90
10344;DHT22;5217;43.960;10.954;2023-02-15T14:37:30;18.10;82.80
10344;DHT22;5217;43.960;10.954;2023-02-15T14:40:03;18.20;83.60
10344;DHT22;5217;43.960;10.954;2023-02-15T14:42:55;18.10;82.80
10344;DHT22;5217;43.960;10.954;2023-02-15T14:45:29;18.20;82.40
10344;DHT22;5217;43.960;10.954;2023-02-15T14:48:09;18.10;82.00
10344;DHT22;5217;43.960;10.954;2023-02-15T14:50:41;18.10;82.10
10344;DHT22;5217;43.960;10.954;2023-02-15T14:53:36;18.20;82.10
10344;DHT22;5217;43.960;10.954;2023-02-15T14:56:17;18.20;81.90
10344;DHT22;5217;43.960;10.954;2023-02-15T14:59:13;18.20;81.20
10344;DHT22;5217;43.960;10.954;2023-02-15T15:01:50;18.10;81.10
10344;DHT22;5217;43.960;10.954;2023-02-15T15:04:26;18.10;81.50
10344;DHT22;5217;43.960;10.954;2023-02-15T15:07:02;18.10;81.60
10344;DHT22;5217;43.960;10.954;2023-02-15T15:09:35;18.20;81.70
10344;DHT22;5217;43.960;10.954;2023-02-15T15:12:39;18.10;81.60
10344;DHT22;5217;43.960;10.954;2023-02-15T15:15:12;18.20;81.60
10344;DHT22;5217;43.960;10.954;2023-02-15T15:17:59;18.20;81.20
10344;DHT22;5217;43.960;10.954;2023-02-15T15:20:42;18.10;81.00
10344;DHT22;5217;43.960;10.954;2023-02-15T15:23:41;18.20;81.20
10344;DHT22;5217;43.960;10.954;2023-02-15T15:26:28;18.20;81.60
10344;DHT22;5217;43.960;10.954;2023-02-15T15:28:59;18.20;81.80
10344;DHT22;5217;43.960;10.954;2023-02-15T15:31:47;18.10;81.50
10344;DHT22;5217;43.960;10.954;2023-02-15T15:34:45;18.10;81.50
10344;DHT22;5217;43.960;10.954;2023-02-15T15:41:02;18.10;81.10
10344;DHT22;5217;43.960;10.954;2023-02-15T15:44:02;18.10;80.40
10344;DHT22;5217;43.960;10.954;2023-02-15T15:47:14;18.00;79.90
10344;DHT22;5217;43.960;10.954;2023-02-15T15:49:46;18.00;79.80
10344;DHT22;5217;43.960;10.954;2023-02-15T15:52:16;18.00;79.90
10344;DHT22;5217;43.960;10.954;2023-02-15T15:54:46;18.00;79.60
10344;DHT22;5217;43.960;10.954;2023-02-15T15:57:21;17.90;79.70
10344;DHT22;5217;43.960;10.954;2023-02-15T15:59:53;17.90;79.70
10344;DHT22;5217;43.960;10.954;2023-02-15T16:02:23;17.90;79.30
10344;DHT22;5217;43.960;10.954;2023-02-15T16:04:51;17.90;79.40
10344;DHT22;5217;43.960;10.954;2023-02-15T16:07:23;17.90;80.10
10344;DHT22;5217;43.960;10.954;2023-02-15T16:09:57;17.80;80.20
10344;DHT22;5217;43.960;10.954;2023-02-15T16:12:29;17.80;80.70
10344;DHT22;5217;43.960;10.954;2023-02-15T16:15:01;17.80;81.80
10344;DHT22;5217;43.960;10.954;2023-02-15T16:17:33;17.80;82.10
10344;DHT22;5217;43.960;10.954;2023-02-15T16:20:05;17.70;82.60
10344;DHT22;5217;43.960;10.954;2023-02-15T16:22:35;17.70;82.70
10344;DHT22;5217;43.960;10.954;2023-02-15T16:25:23;17.60;83.40
10344;DHT22;5217;43.960;10.954;2023-02-15T16:27:56;17.60;83.90